Max, Nebraska
Current Conditions -  °F | °C
As of 11:09 AM on Tuesday 21 Oct 2014 (Local Time) from KIML Reporting Station
Scattered Clouds Scattered Clouds  
Wind Chill: 66°   Ceiling: Unl
Heat Index: 66°   Visibility: 9mi
Dew Point: 56°   Wind: 17mph
Humidity: 70%   Direction: 160°SSE
Pressure: 30.01"   Gusts: NA
Location:  40.11°N, 101.4°W
Report Text: KIML 211709Z AUTO 16015KT 9SM SCT013 19/13 A3001 RMK AO2 T01890133
Loading
Personal Weather Stations






























Interactive Weather Map
Tropical Storm Tracking
New forecast layout! Learn more

10-Day Weather Forecast

Advertisements
Track Severe Weather on mobile